createdAt,value
2018-11-14T00:00:10.301Z,9.20
2018-11-14T00:02:39.144Z,9.20
2018-11-14T00:05:14.842Z,9.20
2018-11-14T00:07:43.705Z,9.20
2018-11-14T00:10:12.377Z,9.10
2018-11-14T00:12:41.172Z,9.10
2018-11-14T00:15:13.008Z,9.10
2018-11-14T00:17:42.438Z,9.00
2018-11-14T00:20:11.585Z,9.00
2018-11-14T00:22:41.428Z,8.90
2018-11-14T00:25:09.977Z,8.90
2018-11-14T00:27:38.718Z,8.90
2018-11-14T00:30:13.580Z,8.80
2018-11-14T00:32:42.541Z,8.80
2018-11-14T00:35:11.730Z,8.80
2018-11-14T00:37:40.761Z,8.80
2018-11-14T00:40:10.768Z,8.70
2018-11-14T00:42:40.068Z,8.70
2018-11-14T00:45:10.775Z,8.80
2018-11-14T00:47:39.610Z,8.70
2018-11-14T00:50:08.818Z,8.70
2018-11-14T00:52:37.547Z,8.70
2018-11-14T00:55:08.239Z,8.70
2018-11-14T00:57:37.030Z,8.70
2018-11-14T01:00:08.777Z,8.70
2018-11-14T01:02:38.188Z,8.70
2018-11-14T01:05:07.914Z,8.70
2018-11-14T01:07:36.692Z,8.70
2018-11-14T01:10:07.334Z,8.70
2018-11-14T01:12:36.039Z,8.70
2018-11-14T01:15:04.915Z,8.60
2018-11-14T01:17:33.723Z,8.60
2018-11-14T01:20:02.294Z,8.60
2018-11-14T01:22:31.090Z,8.60
2018-11-14T01:24:59.628Z,8.60
2018-11-14T01:27:28.368Z,8.60
2018-11-14T01:29:56.923Z,8.60
2018-11-14T01:32:25.767Z,8.50
2018-11-14T01:34:54.311Z,8.50
2018-11-14T01:37:23.120Z,8.40
2018-11-14T01:39:51.683Z,8.40
2018-11-14T01:42:20.450Z,8.40
2018-11-14T01:45:06.827Z,8.30
2018-11-14T01:47:35.541Z,8.20
2018-11-14T01:50:04.368Z,8.20
2018-11-14T01:52:33.178Z,8.10
2018-11-14T01:55:01.743Z,8.20
2018-11-14T01:57:30.544Z,8.20
2018-11-14T01:59:59.090Z,8.20
2018-11-14T02:02:27.938Z,8.30
2018-11-14T02:04:56.504Z,8.20
2018-11-14T02:07:25.309Z,8.20
2018-11-14T02:09:53.862Z,8.20
2018-11-14T02:12:22.704Z,8.20
2018-11-14T02:14:51.543Z,8.20
2018-11-14T02:17:20.174Z,8.20
2018-11-14T02:19:48.694Z,8.10
2018-11-14T02:22:17.452Z,8.20
2018-11-14T02:24:45.998Z,8.10
2018-11-14T02:27:14.894Z,8.10
2018-11-14T02:29:43.485Z,8.10
2018-11-14T02:32:12.258Z,8.10
2018-11-14T02:34:40.800Z,8.20
2018-11-14T02:37:09.479Z,8.10
2018-11-14T02:39:38.043Z,8.20
2018-11-14T02:42:06.765Z,8.20
2018-11-14T02:44:35.303Z,8.20
2018-11-14T02:47:04.231Z,8.20
2018-11-14T02:49:32.757Z,8.20
2018-11-14T02:52:01.528Z,8.20
2018-11-14T02:54:30.064Z,8.20
2018-11-14T02:56:58.914Z,8.20
2018-11-14T02:59:27.456Z,8.20
2018-11-14T03:01:56.263Z,8.20
2018-11-14T03:04:24.767Z,8.20
2018-11-14T03:06:53.564Z,8.20
2018-11-14T03:09:23.340Z,8.20
2018-11-14T03:11:52.181Z,8.20
2018-11-14T03:14:20.778Z,8.20
2018-11-14T03:16:49.642Z,8.20
2018-11-14T03:19:18.203Z,8.20
2018-11-14T03:21:47.027Z,8.30
2018-11-14T03:24:15.593Z,8.30
2018-11-14T03:26:44.423Z,8.20
2018-11-14T03:29:13.077Z,8.20
2018-11-14T03:31:41.742Z,8.20
2018-11-14T03:34:10.285Z,8.20
2018-11-14T03:36:38.883Z,8.20
2018-11-14T03:39:09.230Z,8.20
2018-11-14T03:41:38.102Z,8.20
2018-11-14T03:44:06.995Z,8.20
2018-11-14T03:46:35.536Z,8.20
2018-11-14T03:49:04.052Z,8.10
2018-11-14T03:51:32.757Z,8.20
2018-11-14T03:54:01.250Z,8.20
2018-11-14T03:56:29.924Z,8.10
2018-11-14T03:58:58.477Z,8.20
2018-11-14T04:01:27.322Z,8.20
2018-11-14T04:03:55.916Z,8.20
2018-11-14T04:06:24.746Z,8.20
2018-11-14T04:08:53.356Z,8.20
2018-11-14T04:11:22.085Z,8.20
2018-11-14T04:13:50.619Z,8.20
2018-11-14T04:16:19.360Z,8.20
2018-11-14T04:18:47.910Z,8.20
2018-11-14T04:21:16.754Z,8.20
2018-11-14T04:23:49.536Z,8.10
2018-11-14T04:26:24.978Z,8.20
2018-11-14T04:28:53.532Z,8.10
2018-11-14T04:31:22.347Z,8.20
2018-11-14T04:33:50.955Z,8.20
2018-11-14T04:36:19.667Z,8.20
2018-11-14T04:38:48.241Z,8.10
2018-11-14T04:41:17.013Z,8.10
2018-11-14T04:43:45.551Z,8.10
2018-11-14T04:46:14.166Z,8.10
2018-11-14T04:48:42.726Z,8.10
2018-11-14T04:51:11.544Z,8.10
2018-11-14T04:53:40.244Z,8.10
2018-11-14T04:56:08.857Z,8.10
2018-11-14T04:58:37.395Z,8.10
2018-11-14T05:01:06.171Z,8.10
2018-11-14T05:03:34.763Z,8.10
2018-11-14T05:06:03.602Z,8.10
2018-11-14T05:08:32.206Z,8.10
2018-11-14T05:11:01.021Z,8.10
2018-11-14T05:13:29.629Z,8.10
2018-11-14T05:15:58.463Z,8.10
2018-11-14T05:18:27.082Z,8.10
2018-11-14T05:20:55.840Z,8.10
2018-11-14T05:23:24.383Z,8.10
2018-11-14T05:25:53.102Z,8.10
2018-11-14T05:28:22.042Z,8.10
2018-11-14T05:30:50.917Z,8.10
2018-11-14T05:33:19.480Z,8.10
2018-11-14T05:35:48.255Z,8.10
2018-11-14T05:38:16.861Z,8.10
2018-11-14T05:40:45.669Z,8.10
2018-11-14T05:43:14.264Z,8.10
2018-11-14T05:45:43.432Z,8.10
2018-11-14T05:48:12.048Z,8.10
2018-11-14T05:50:40.687Z,8.10
2018-11-14T05:53:09.280Z,8.10
2018-11-14T05:55:38.024Z,8.10
2018-11-14T05:58:06.735Z,8.00
2018-11-14T06:00:35.508Z,8.00
2018-11-14T06:03:04.818Z,8.00
2018-11-14T06:05:33.593Z,8.00
2018-11-14T06:08:02.150Z,7.90
2018-11-14T06:10:30.964Z,7.80
2018-11-14T06:12:59.516Z,7.80
2018-11-14T06:15:28.449Z,7.80
2018-11-14T06:17:57.824Z,7.80
2018-11-14T06:20:26.406Z,7.80
2018-11-14T06:22:55.154Z,7.80
2018-11-14T06:25:30.957Z,7.80
2018-11-14T06:28:00.511Z,7.90
2018-11-14T06:30:29.606Z,7.90
2018-11-14T06:32:58.837Z,7.90
2018-11-14T06:35:27.725Z,7.90
2018-11-14T06:37:56.496Z,7.90
2018-11-14T06:40:25.289Z,7.90
2018-11-14T06:42:53.855Z,7.90
2018-11-14T06:45:23.778Z,7.90
2018-11-14T06:47:53.710Z,8.00
2018-11-14T06:50:22.469Z,8.00
2018-11-14T06:52:52.539Z,8.00
2018-11-14T06:55:21.726Z,8.00
2018-11-14T06:57:50.309Z,8.00
2018-11-14T07:00:23.482Z,8.00
2018-11-14T07:02:52.681Z,8.00
2018-11-14T07:05:21.557Z,8.00
2018-11-14T07:07:50.106Z,8.00
2018-11-14T07:10:20.354Z,8.00
2018-11-14T07:12:48.955Z,8.00
2018-11-14T07:15:19.011Z,8.00
2018-11-14T07:17:48.415Z,8.10
2018-11-14T07:20:20.707Z,8.10
2018-11-14T07:22:49.309Z,8.10
2018-11-14T07:25:18.168Z,8.10
2018-11-14T07:27:46.856Z,8.10
2018-11-14T07:30:33.764Z,8.10
2018-11-14T07:33:03.731Z,8.10
2018-11-14T07:35:32.486Z,8.20
2018-11-14T07:38:37.816Z,8.30
2018-11-14T07:41:08.051Z,8.30
2018-11-14T07:43:37.531Z,8.30
2018-11-14T07:46:06.646Z,8.30
2018-11-14T07:48:35.391Z,8.40
2018-11-14T07:51:04.275Z,8.40
2018-11-14T07:53:33.326Z,8.40
2018-11-14T07:56:02.104Z,8.40
2018-11-14T07:58:31.117Z,8.40
2018-11-14T08:01:00.000Z,8.50
2018-11-14T08:03:28.524Z,8.50
2018-11-14T08:05:58.486Z,8.50
2018-11-14T08:08:27.146Z,8.50
2018-11-14T08:10:55.780Z,8.60
2018-11-14T08:13:27.499Z,8.70
2018-11-14T08:15:57.759Z,8.70
2018-11-14T08:18:26.704Z,8.80
2018-11-14T08:20:55.945Z,8.80
2018-11-14T08:23:24.483Z,8.80
2018-11-14T08:25:53.109Z,8.80
2018-11-14T08:28:21.789Z,8.80
2018-11-14T08:30:50.779Z,8.80
2018-11-14T08:33:19.312Z,8.90
2018-11-14T08:35:48.127Z,8.90
2018-11-14T08:38:16.680Z,8.90
2018-11-14T08:40:45.484Z,8.90
2018-11-14T08:43:14.065Z,9.00
2018-11-14T08:45:49.716Z,9.00
2018-11-14T08:48:18.262Z,9.00
2018-11-14T08:50:46.990Z,9.10
2018-11-14T08:53:15.638Z,9.10
2018-11-14T08:55:44.384Z,9.20
2018-11-14T08:58:13.642Z,9.20
2018-11-14T09:00:42.358Z,9.20
2018-11-14T09:03:12.365Z,9.20
2018-11-14T09:05:41.357Z,9.20
2018-11-14T09:08:09.970Z,9.20
2018-11-14T09:10:38.902Z,9.20
2018-11-14T09:13:11.913Z,9.30
2018-11-14T09:15:41.125Z,9.30
2018-11-14T09:18:09.886Z,9.40
2018-11-14T09:20:38.781Z,9.40
2018-11-14T09:23:07.464Z,9.40
2018-11-14T09:25:36.425Z,9.40
2018-11-14T09:28:05.150Z,9.40
2018-11-14T09:30:34.019Z,9.50
2018-11-14T09:33:02.618Z,9.50
2018-11-14T09:35:31.557Z,9.60
2018-11-14T09:38:00.811Z,9.60
2018-11-14T09:40:30.290Z,9.60
2018-11-14T09:42:58.892Z,9.60
2018-11-14T09:45:28.866Z,9.60
2018-11-14T09:47:57.520Z,9.60
2018-11-14T09:50:28.336Z,9.60
2018-11-14T09:52:58.321Z,9.60
2018-11-14T09:55:27.153Z,9.70
2018-11-14T09:57:55.700Z,9.60
2018-11-14T10:00:25.726Z,9.60
2018-11-14T10:02:56.149Z,9.60
2018-11-14T10:05:25.521Z,9.60
2018-11-14T10:07:54.105Z,9.60
2018-11-14T10:10:23.383Z,9.60
2018-11-14T10:12:51.917Z,9.70
2018-11-14T10:15:22.943Z,9.60
2018-11-14T10:17:51.500Z,9.60
2018-11-14T10:20:21.519Z,9.60
2018-11-14T10:22:50.126Z,9.60
2018-11-14T10:25:19.304Z,9.70
2018-11-14T10:27:48.417Z,9.70
2018-11-14T10:30:18.954Z,9.70
2018-11-14T10:32:48.091Z,9.70
2018-11-14T10:35:16.936Z,9.70
2018-11-14T10:37:45.753Z,9.70
2018-11-14T10:40:16.943Z,9.70
2018-11-14T10:42:45.650Z,9.80
2018-11-14T10:45:15.683Z,9.70
2018-11-14T10:47:44.483Z,9.70
2018-11-14T10:50:15.435Z,9.80
2018-11-14T10:52:43.966Z,9.90
2018-11-14T10:55:13.658Z,9.90
2018-11-14T10:57:42.286Z,9.90
2018-11-14T11:00:32.041Z,10.00
2018-11-14T11:03:06.819Z,10.00
2018-11-14T11:05:41.014Z,10.00
2018-11-14T11:08:15.118Z,10.00
2018-11-14T11:10:49.364Z,10.00
2018-11-14T11:13:23.273Z,10.00
2018-11-14T11:15:57.385Z,10.00
2018-11-14T11:18:29.644Z,10.00
2018-11-14T11:20:58.472Z,10.10
2018-11-14T11:23:27.027Z,10.10
2018-11-14T11:25:55.815Z,10.00
2018-11-14T11:28:24.353Z,10.00
2018-11-14T11:30:53.175Z,10.00
2018-11-14T11:33:21.638Z,9.90
2018-11-14T11:35:50.379Z,9.90
2018-11-14T11:38:18.986Z,9.90
2018-11-14T11:40:47.661Z,10.00
2018-11-14T11:43:16.186Z,9.90
2018-11-14T11:45:44.926Z,9.90
2018-11-14T11:48:13.462Z,10.00
2018-11-14T11:50:42.176Z,10.00
2018-11-14T11:53:10.691Z,10.00
2018-11-14T11:55:39.490Z,10.00
2018-11-14T11:58:08.044Z,10.00
2018-11-14T12:00:37.030Z,10.00
2018-11-14T12:03:05.435Z,10.00
2018-11-14T12:05:34.294Z,10.00
2018-11-14T12:08:02.888Z,10.00
2018-11-14T12:10:31.638Z,10.00
2018-11-14T12:13:00.832Z,10.00
2018-11-14T12:15:29.617Z,10.00
2018-11-14T12:17:58.146Z,10.10
2018-11-14T12:20:26.896Z,10.10
2018-11-14T12:22:55.442Z,10.00
2018-11-14T12:25:24.263Z,10.00
2018-11-14T12:27:52.879Z,10.00
2018-11-14T12:30:21.811Z,10.00
2018-11-14T12:32:50.330Z,10.00
2018-11-14T12:35:19.180Z,10.00
2018-11-14T12:37:47.751Z,10.00
2018-11-14T12:40:16.454Z,10.00
2018-11-14T12:42:45.143Z,10.00
2018-11-14T12:45:15.314Z,9.90
2018-11-14T12:47:43.798Z,9.90
2018-11-14T12:50:13.530Z,9.90
2018-11-14T12:52:42.516Z,9.80
2018-11-14T12:55:12.843Z,9.80
2018-11-14T12:57:41.455Z,9.80
2018-11-14T13:00:12.513Z,9.70
2018-11-14T13:02:41.068Z,9.70
2018-11-14T13:05:10.758Z,9.70
2018-11-14T13:07:39.613Z,9.70
2018-11-14T13:10:09.587Z,9.60
2018-11-14T13:12:38.144Z,9.60
2018-11-14T13:15:08.079Z,9.60
2018-11-14T13:17:36.656Z,9.60
2018-11-14T13:20:07.530Z,9.60
2018-11-14T13:22:36.242Z,9.60
2018-11-14T13:25:06.060Z,9.60
2018-11-14T13:27:34.640Z,9.60
2018-11-14T13:30:03.557Z,9.60
2018-11-14T13:32:32.205Z,9.60
2018-11-14T13:35:01.044Z,9.60
2018-11-14T13:37:29.630Z,9.60
2018-11-14T13:39:58.476Z,9.60
2018-11-14T13:42:27.096Z,9.70
2018-11-14T13:44:55.976Z,9.60
2018-11-14T13:47:24.528Z,9.60
2018-11-14T13:49:53.560Z,9.60
2018-11-14T13:52:21.909Z,9.60
2018-11-14T13:54:50.640Z,9.70
2018-11-14T13:57:19.241Z,9.60
2018-11-14T13:59:48.165Z,9.60
2018-11-14T14:02:16.796Z,9.60
2018-11-14T14:04:45.422Z,9.60
2018-11-14T14:07:14.233Z,9.60
2018-11-14T14:09:42.869Z,9.60
2018-11-14T14:12:11.460Z,9.50
2018-11-14T14:14:40.247Z,9.50
2018-11-14T14:17:08.824Z,9.50
2018-11-14T14:19:37.624Z,9.50
2018-11-14T14:22:06.259Z,9.50
2018-11-14T14:24:35.103Z,9.40
2018-11-14T14:27:03.661Z,9.40
2018-11-14T14:29:32.371Z,9.30
2018-11-14T14:32:01.109Z,9.30
2018-11-14T14:34:29.801Z,9.20
2018-11-14T14:36:58.373Z,9.30
2018-11-14T14:39:27.035Z,9.20
2018-11-14T14:41:55.739Z,9.20
2018-11-14T14:44:24.387Z,9.20
2018-11-14T14:46:52.994Z,9.10
2018-11-14T14:49:22.123Z,9.10
2018-11-14T14:51:50.676Z,9.10
2018-11-14T14:54:19.707Z,9.10
2018-11-14T14:56:48.386Z,9.00
2018-11-14T14:59:17.285Z,9.00
2018-11-14T15:01:46.772Z,9.00
2018-11-14T15:04:16.618Z,9.00
2018-11-14T15:06:45.476Z,9.00
2018-11-14T15:09:14.540Z,9.00
2018-11-14T15:11:44.288Z,9.00
2018-11-14T15:14:13.481Z,9.00
2018-11-14T15:16:42.126Z,9.00
2018-11-14T15:19:11.026Z,9.00
2018-11-14T15:21:39.730Z,8.90
2018-11-14T15:24:08.677Z,8.80
2018-11-14T15:26:37.350Z,8.80
2018-11-14T15:29:06.553Z,8.80
2018-11-14T15:31:35.222Z,8.70
2018-11-14T15:34:04.137Z,8.70
2018-11-14T15:36:33.283Z,8.70
2018-11-14T15:39:02.907Z,8.60
2018-11-14T15:41:31.561Z,8.50
2018-11-14T15:44:00.357Z,8.50
2018-11-14T15:46:28.994Z,8.40
2018-11-14T15:48:57.925Z,8.40
2018-11-14T15:51:26.598Z,8.40
2018-11-14T15:53:55.412Z,8.40
2018-11-14T15:56:23.984Z,8.30
2018-11-14T15:58:52.731Z,8.40
2018-11-14T16:01:21.560Z,8.40
2018-11-14T16:03:50.481Z,8.40
2018-11-14T16:06:19.096Z,8.40
2018-11-14T16:08:47.991Z,8.40
2018-11-14T16:11:16.621Z,8.30
2018-11-14T16:13:49.577Z,8.30
2018-11-14T16:16:18.213Z,8.30
2018-11-14T16:18:46.931Z,8.40
2018-11-14T16:21:15.693Z,8.30
2018-11-14T16:23:44.975Z,8.30
2018-11-14T16:26:13.757Z,8.30
2018-11-14T16:28:43.102Z,8.30
2018-11-14T16:31:11.784Z,8.30
2018-11-14T16:33:40.861Z,8.30
2018-11-14T16:36:09.570Z,8.30
2018-11-14T16:38:38.476Z,8.30
2018-11-14T16:41:07.711Z,8.40
2018-11-14T16:43:36.616Z,8.40
2018-11-14T16:46:05.286Z,8.30
2018-11-14T16:48:34.079Z,8.30
2018-11-14T16:51:02.866Z,8.30
2018-11-14T16:53:31.757Z,8.30
2018-11-14T16:56:00.300Z,8.30
2018-11-14T16:58:29.119Z,8.20
2018-11-14T17:00:57.702Z,8.30
2018-11-14T17:03:26.411Z,8.20
2018-11-14T17:05:54.939Z,8.30
2018-11-14T17:08:23.718Z,8.30
2018-11-14T17:10:52.424Z,8.30
2018-11-14T17:13:21.084Z,8.30
2018-11-14T17:15:49.661Z,8.30
2018-11-14T17:18:18.424Z,8.40
2018-11-14T17:20:47.062Z,8.40
2018-11-14T17:23:16.164Z,8.40
2018-11-14T17:25:44.825Z,8.50
2018-11-14T17:28:13.752Z,8.50
2018-11-14T17:30:42.407Z,8.50
2018-11-14T17:33:11.263Z,8.50
2018-11-14T17:35:39.998Z,8.50
2018-11-14T17:38:08.849Z,8.50
2018-11-14T17:40:37.547Z,8.50
2018-11-14T17:43:06.457Z,8.50
2018-11-14T17:45:35.099Z,8.40
2018-11-14T17:48:03.715Z,8.40
2018-11-14T17:50:33.684Z,8.40
2018-11-14T17:53:03.162Z,8.40
2018-11-14T17:55:31.994Z,8.40
2018-11-14T17:58:01.073Z,8.40
2018-11-14T18:00:30.786Z,8.40
2018-11-14T18:02:59.755Z,8.40
2018-11-14T18:05:29.685Z,8.50
2018-11-14T18:07:58.374Z,8.50
2018-11-14T18:10:28.224Z,8.50
2018-11-14T18:12:58.300Z,8.40
2018-11-14T18:15:27.081Z,8.40
2018-11-14T18:17:56.531Z,8.40
2018-11-14T18:20:27.712Z,8.40
2018-11-14T18:22:57.085Z,8.40
2018-11-14T18:25:26.206Z,8.40
2018-11-14T18:27:55.304Z,8.30
2018-11-14T18:30:28.771Z,8.30
2018-11-14T18:32:58.846Z,8.40
2018-11-14T18:35:27.947Z,8.30
2018-11-14T18:37:58.082Z,8.30
2018-11-14T18:40:31.055Z,8.30
2018-11-14T18:43:00.132Z,8.30
2018-11-14T18:45:30.363Z,8.30
2018-11-14T18:48:00.311Z,8.30
2018-11-14T18:50:29.340Z,8.30
2018-11-14T18:52:58.124Z,8.30
2018-11-14T18:55:28.319Z,8.30
2018-11-14T18:57:57.488Z,8.30
2018-11-14T19:00:28.494Z,8.30
2018-11-14T19:02:57.620Z,8.30
2018-11-14T19:05:26.382Z,8.30
2018-11-14T19:07:55.417Z,8.30
2018-11-14T19:10:25.758Z,8.20
2018-11-14T19:12:54.723Z,8.20
2018-11-14T19:15:24.577Z,8.20
2018-11-14T19:17:53.582Z,8.20
2018-11-14T19:20:24.528Z,8.20
2018-11-14T19:22:54.035Z,8.20
2018-11-14T19:25:25.185Z,8.20
2018-11-14T19:27:54.171Z,8.10
2018-11-14T19:30:26.191Z,8.20
2018-11-14T19:32:55.566Z,8.20
2018-11-14T19:35:24.172Z,8.20
2018-11-14T19:37:53.894Z,8.20
2018-11-14T19:40:24.915Z,8.20
2018-11-14T19:42:56.221Z,8.10
2018-11-14T19:45:26.522Z,8.10
2018-11-14T19:47:55.897Z,8.10
2018-11-14T19:50:25.327Z,8.10
2018-11-14T19:52:54.303Z,8.10
2018-11-14T19:55:25.170Z,8.10
2018-11-14T19:57:55.301Z,8.10
2018-11-14T20:00:29.802Z,8.00
2018-11-14T20:02:58.554Z,8.00
2018-11-14T20:05:27.482Z,8.00
2018-11-14T20:07:56.146Z,7.90
2018-11-14T20:10:27.123Z,7.90
2018-11-14T20:12:55.704Z,7.90
2018-11-14T20:15:26.125Z,7.90
2018-11-14T20:17:54.775Z,7.80
2018-11-14T20:20:25.918Z,7.80
2018-11-14T20:22:54.547Z,7.70
2018-11-14T20:25:23.400Z,7.70
2018-11-14T20:27:52.088Z,7.70
2018-11-14T20:30:26.454Z,7.60
2018-11-14T20:32:56.324Z,7.60
2018-11-14T20:35:26.307Z,7.50
2018-11-14T20:37:55.156Z,7.40
2018-11-14T20:40:24.229Z,7.40
2018-11-14T20:42:53.937Z,7.30
2018-11-14T20:45:28.384Z,7.30
2018-11-14T20:47:56.977Z,7.20
2018-11-14T20:50:26.982Z,7.20
2018-11-14T20:52:58.284Z,7.20
2018-11-14T20:55:27.476Z,7.20
2018-11-14T20:57:56.457Z,7.10
2018-11-14T21:00:29.614Z,7.20
2018-11-14T21:02:58.409Z,7.10
2018-11-14T21:05:27.663Z,7.10
2018-11-14T21:07:56.395Z,7.10
2018-11-14T21:10:29.215Z,7.20
2018-11-14T21:12:58.549Z,7.10
2018-11-14T21:15:28.863Z,7.20
2018-11-14T21:17:58.522Z,7.20
2018-11-14T21:20:27.140Z,7.20
2018-11-14T21:22:55.949Z,7.30
2018-11-14T21:25:25.467Z,7.30
2018-11-14T21:27:54.834Z,7.40
2018-11-14T21:30:24.752Z,7.40
2018-11-14T21:32:53.584Z,7.40
2018-11-14T21:35:25.821Z,7.40
2018-11-14T21:37:55.781Z,7.40
2018-11-14T21:40:24.430Z,7.50
2018-11-14T21:42:53.154Z,7.40
2018-11-14T21:45:23.145Z,7.50
2018-11-14T21:47:57.050Z,7.40
2018-11-14T21:50:26.879Z,7.50
2018-11-14T21:52:55.700Z,7.50
2018-11-14T21:55:24.352Z,7.50
2018-11-14T21:57:52.934Z,7.50
2018-11-14T22:00:23.059Z,7.50
2018-11-14T22:02:53.828Z,7.60
2018-11-14T22:05:22.605Z,7.60
2018-11-14T22:07:51.327Z,7.60
2018-11-14T22:10:21.321Z,7.60
2018-11-14T22:12:50.623Z,7.60
2018-11-14T22:15:20.581Z,7.60
2018-11-14T22:17:49.207Z,7.60
2018-11-14T22:20:19.521Z,7.50
2018-11-14T22:22:48.754Z,7.60
2018-11-14T22:25:18.643Z,7.60
2018-11-14T22:27:47.337Z,7.50
2018-11-14T22:30:23.364Z,7.50
2018-11-14T22:32:51.958Z,7.50
2018-11-14T22:35:21.842Z,7.50
2018-11-14T22:37:50.448Z,7.50
2018-11-14T22:40:20.357Z,7.50
2018-11-14T22:42:48.895Z,7.50
2018-11-14T22:45:19.843Z,7.50
2018-11-14T22:47:48.666Z,7.50
2018-11-14T22:50:18.614Z,7.50
2018-11-14T22:52:47.703Z,7.50
2018-11-14T22:55:17.564Z,7.50
2018-11-14T22:57:47.012Z,7.50
2018-11-14T23:00:30.133Z,7.50
2018-11-14T23:02:59.951Z,7.50
2018-11-14T23:05:28.723Z,7.50
2018-11-14T23:07:58.041Z,7.50
2018-11-14T23:10:27.171Z,7.50
2018-11-14T23:12:55.696Z,7.50
2018-11-14T23:15:24.673Z,7.50
2018-11-14T23:17:53.327Z,7.50
2018-11-14T23:20:21.960Z,7.40
2018-11-14T23:22:51.097Z,7.50
2018-11-14T23:25:20.487Z,7.40
2018-11-14T23:27:50.334Z,7.40
2018-11-14T23:30:20.122Z,7.40
2018-11-14T23:32:49.878Z,7.40
2018-11-14T23:35:20.616Z,7.40
2018-11-14T23:37:50.375Z,7.40
2018-11-14T23:40:18.920Z,7.40
2018-11-14T23:42:47.777Z,7.40
2018-11-14T23:45:17.001Z,7.40
2018-11-14T23:47:46.274Z,7.40
2018-11-14T23:50:16.285Z,7.40
2018-11-14T23:52:46.054Z,7.30
2018-11-14T23:55:15.519Z,7.40
2018-11-14T23:57:44.102Z,7.30
